createdAt,value
2023-03-01T00:03:22.496Z,101769.55
2023-03-01T00:08:34.320Z,101765.23
2023-03-01T00:13:46.990Z,101753.64
2023-03-01T00:19:03.653Z,101757.19
2023-03-01T00:24:38.488Z,101749.91
2023-03-01T00:29:41.712Z,101749.79
2023-03-01T00:34:55.199Z,101752.23
2023-03-01T00:40:15.987Z,101743.88
2023-03-01T00:45:32.735Z,101732.23
2023-03-01T00:50:46.552Z,101731.83
2023-03-01T00:55:49.822Z,101727.77
2023-03-01T01:00:59.697Z,101720.64
2023-03-01T01:06:10.405Z,101721.40
2023-03-01T01:11:37.078Z,101720.48
2023-03-01T01:16:46.926Z,101715.73
2023-03-01T01:22:10.521Z,101709.84
2023-03-01T01:27:13.795Z,101701.33
2023-03-01T01:32:30.264Z,101695.92
2023-03-01T01:38:23.278Z,101683.28
2023-03-01T01:43:55.627Z,101680.77
2023-03-01T01:49:33.864Z,101688.49
2023-03-01T01:54:51.921Z,101684.30
2023-03-01T02:00:59.664Z,101671.66
2023-03-01T02:06:24.486Z,101664.26
2023-03-01T02:12:31.738Z,101665.95
2023-03-01T02:18:00.395Z,101670.52
2023-03-01T02:23:06.919Z,101671.91
2023-03-01T02:28:34.590Z,101671.92
2023-03-01T02:34:09.635Z,101663.75
2023-03-01T02:39:46.642Z,101659.04
2023-03-01T02:44:55.038Z,101659.83
2023-03-01T02:50:08.652Z,101644.92
2023-03-01T02:55:32.326Z,101635.35
2023-03-01T03:00:52.353Z,101642.29
2023-03-01T03:06:06.207Z,101647.57
2023-03-01T03:11:19.936Z,101648.90
2023-03-01T03:16:23.924Z,101631.65
2023-03-01T03:21:28.597Z,101625.25
2023-03-01T03:26:44.881Z,101624.38
2023-03-01T03:32:33.858Z,101618.52
2023-03-01T03:38:01.616Z,101608.01
2023-03-01T03:43:19.707Z,101599.38
2023-03-01T03:48:27.072Z,101591.95
2023-03-01T03:53:30.687Z,101594.51
2023-03-01T03:59:23.620Z,101600.71
2023-03-01T04:04:56.391Z,101597.54
2023-03-01T04:10:53.408Z,101582.94
2023-03-01T04:16:20.121Z,101577.87
2023-03-01T04:21:51.806Z,101573.16
2023-03-01T04:27:35.590Z,101573.46
2023-03-01T04:33:31.899Z,101589.75
2023-03-01T04:39:46.904Z,101581.08
2023-03-01T04:45:02.762Z,101577.45
2023-03-01T04:50:24.599Z,101572.23
2023-03-01T04:55:50.376Z,101567.30
2023-03-01T05:00:54.568Z,101555.61
2023-03-01T05:06:31.779Z,101553.25
2023-03-01T05:11:55.800Z,101551.48
2023-03-01T05:17:18.983Z,101541.91
2023-03-01T05:23:08.909Z,101542.96
2023-03-01T05:28:55.774Z,101552.55
2023-03-01T05:34:07.571Z,101560.17
2023-03-01T05:39:42.866Z,101568.15
2023-03-01T05:45:14.460Z,101577.11
2023-03-01T05:51:10.728Z,101587.42
2023-03-01T05:57:25.493Z,101592.97
2023-03-01T06:02:40.109Z,101588.77
2023-03-01T06:08:15.040Z,101594.59
2023-03-01T06:13:51.186Z,101587.19
2023-03-01T06:19:14.763Z,101587.11
2023-03-01T06:24:18.016Z,101586.83
2023-03-01T06:29:21.298Z,101589.44
2023-03-01T06:34:33.223Z,101589.72
2023-03-01T06:39:36.925Z,101582.63
2023-03-01T06:44:40.360Z,101585.52
2023-03-01T06:49:46.824Z,101590.55
2023-03-01T06:54:50.277Z,101589.05
2023-03-01T06:59:53.613Z,101586.52
2023-03-01T07:05:01.853Z,101582.48
2023-03-01T07:10:06.369Z,101585.05
2023-03-01T07:15:11.358Z,101583.20
2023-03-01T07:20:26.290Z,101579.48
2023-03-01T07:26:01.857Z,101585.52
2023-03-01T07:31:10.002Z,101579.30
2023-03-01T07:36:13.568Z,101574.58
2023-03-01T07:41:19.589Z,101562.13
2023-03-01T07:47:03.458Z,101552.60
2023-03-01T07:52:23.157Z,101553.42
2023-03-01T07:57:52.028Z,101555.94
2023-03-01T08:03:18.385Z,101553.48
2023-03-01T08:08:27.342Z,101554.50
2023-03-01T08:13:34.058Z,101559.51
2023-03-01T08:18:40.629Z,101557.27
2023-03-01T08:23:45.212Z,101558.89
2023-03-01T08:29:09.229Z,101559.98
2023-03-01T08:34:15.898Z,101558.20
2023-03-01T08:39:20.707Z,101558.30
2023-03-01T08:44:24.312Z,101557.40
2023-03-01T08:49:27.743Z,101552.64
2023-03-01T08:54:31.598Z,101553.23
2023-03-01T08:59:38.334Z,101564.95
2023-03-01T09:04:51.772Z,101564.82
2023-03-01T09:10:03.313Z,101567.05
2023-03-01T09:15:27.058Z,101566.51
2023-03-01T09:20:32.498Z,101564.86
2023-03-01T09:25:46.513Z,101566.20
2023-03-01T09:30:49.882Z,101563.51
2023-03-01T09:36:04.192Z,101554.14
2023-03-01T09:41:47.340Z,101550.52
2023-03-01T09:47:17.506Z,101547.41
2023-03-01T09:52:59.978Z,101538.17
2023-03-01T09:58:30.884Z,101531.98
2023-03-01T10:03:44.113Z,101532.48
2023-03-01T10:09:01.943Z,101524.17
2023-03-01T10:14:16.910Z,101518.08
2023-03-01T10:20:15.607Z,101509.61
2023-03-01T10:26:05.987Z,101490.86
2023-03-01T10:31:16.317Z,101489.36
2023-03-01T10:36:33.738Z,101482.79
2023-03-01T10:41:52.946Z,101483.77
2023-03-01T10:47:28.412Z,101480.98
2023-03-01T10:52:59.638Z,101476.60
2023-03-01T10:58:20.614Z,101474.29
2023-03-01T11:03:28.644Z,101471.67
2023-03-01T11:08:38.525Z,101465.67
2023-03-01T11:13:53.206Z,101465.30
2023-03-01T11:19:14.775Z,101466.17
2023-03-01T11:24:26.628Z,101458.85
2023-03-01T11:30:02.214Z,101455.63
2023-03-01T11:35:37.557Z,101444.84
2023-03-01T11:40:56.260Z,101439.06
2023-03-01T11:46:11.849Z,101438.98
2023-03-01T11:51:46.130Z,101433.18
2023-03-01T11:57:16.498Z,101435.72
2023-03-01T12:02:54.925Z,101440.39
2023-03-01T12:08:30.494Z,101434.88
2023-03-01T12:13:45.240Z,101430.11
2023-03-01T12:19:23.597Z,101431.42
2023-03-01T12:24:34.875Z,101436.70
2023-03-01T12:29:59.967Z,101433.65
2023-03-01T12:35:34.267Z,101429.71
2023-03-01T12:41:20.890Z,101420.77
2023-03-01T12:46:48.693Z,101416.25
2023-03-01T12:52:34.342Z,101412.14
2023-03-01T12:58:22.324Z,101406.67
2023-03-01T13:03:57.827Z,101395.16
2023-03-01T13:09:19.530Z,101396.42
2023-03-01T13:14:24.088Z,101399.58
2023-03-01T13:19:36.925Z,101396.48
2023-03-01T13:24:42.533Z,101390.08
2023-03-01T13:30:02.168Z,101386.23
2023-03-01T13:35:21.014Z,101385.67
2023-03-01T13:40:27.322Z,101376.84
2023-03-01T13:45:42.059Z,101372.69
2023-03-01T13:50:52.837Z,101368.52
2023-03-01T13:56:18.764Z,101365.02
2023-03-01T14:01:26.691Z,101366.93
2023-03-01T14:06:33.182Z,101368.72
2023-03-01T14:11:39.456Z,101360.99
2023-03-01T14:17:04.449Z,101355.84
2023-03-01T14:22:34.476Z,101353.96
2023-03-01T14:27:43.180Z,101350.14
2023-03-01T14:32:54.922Z,101343.56
2023-03-01T14:37:58.764Z,101341.83
2023-03-01T14:43:11.197Z,101335.73
2023-03-01T14:48:15.000Z,101332.08
2023-03-01T14:53:21.913Z,101327.39
2023-03-01T14:58:26.793Z,101328.43
2023-03-01T15:03:40.277Z,101322.17
2023-03-01T15:08:48.289Z,101315.20
2023-03-01T15:13:53.392Z,101311.86
2023-03-01T15:19:08.238Z,101310.20
2023-03-01T15:24:13.071Z,101308.55
2023-03-01T15:29:21.492Z,101309.20
2023-03-01T15:34:29.656Z,101304.52
2023-03-01T15:39:55.120Z,101303.42
2023-03-01T15:45:21.921Z,101298.23
2023-03-01T15:50:27.462Z,101295.98
2023-03-01T15:55:34.221Z,101293.67
2023-03-01T16:01:00.864Z,101291.20
2023-03-01T16:06:13.461Z,101295.77
2023-03-01T16:11:20.101Z,101296.86
2023-03-01T16:16:23.700Z,101298.97
2023-03-01T16:21:27.317Z,101300.40
2023-03-01T16:26:34.247Z,101299.73
2023-03-01T16:31:40.645Z,101294.67
2023-03-01T16:36:44.573Z,101296.98
2023-03-01T16:41:50.895Z,101295.87
2023-03-01T16:46:59.365Z,101299.53
2023-03-01T16:52:03.081Z,101302.80
2023-03-01T16:57:31.747Z,101302.69
2023-03-01T17:02:35.950Z,101297.23
2023-03-01T17:07:40.110Z,101300.10
2023-03-01T17:12:43.604Z,101300.21
2023-03-01T17:18:00.667Z,101299.27
2023-03-01T17:23:10.345Z,101307.59
2023-03-01T17:28:14.902Z,101314.46
2023-03-01T17:33:21.374Z,101314.77
2023-03-01T17:38:28.006Z,101317.08
2023-03-01T17:43:35.313Z,101316.44
2023-03-01T17:48:39.696Z,101318.43
2023-03-01T17:53:48.343Z,101321.57
2023-03-01T17:58:57.474Z,101321.55
2023-03-01T18:04:34.287Z,101321.50
2023-03-01T18:09:57.815Z,101316.14
2023-03-01T18:15:04.061Z,101317.77
2023-03-01T18:20:10.614Z,101315.34
2023-03-01T18:25:16.382Z,101303.73
2023-03-01T18:30:22.601Z,101299.00
2023-03-01T18:35:26.143Z,101302.13
2023-03-01T18:40:32.103Z,101295.31
2023-03-01T18:45:38.808Z,101292.15
2023-03-01T18:50:42.882Z,101293.69
2023-03-01T18:56:01.398Z,101291.61
2023-03-01T19:01:08.427Z,101296.89
2023-03-01T19:06:36.807Z,101296.52
2023-03-01T19:11:42.747Z,101295.19
2023-03-01T19:16:46.127Z,101297.97
2023-03-01T19:22:20.010Z,101307.92
2023-03-01T19:27:26.410Z,101318.73
2023-03-01T19:32:41.211Z,101325.71
2023-03-01T19:37:44.577Z,101328.34
2023-03-01T19:42:58.950Z,101330.83
2023-03-01T19:48:02.429Z,101330.64
2023-03-01T19:53:26.234Z,101330.75
2023-03-01T19:58:31.558Z,101334.86
2023-03-01T20:03:35.976Z,101331.42
2023-03-01T20:08:45.286Z,101333.45
2023-03-01T20:13:50.994Z,101332.09
2023-03-01T20:19:01.848Z,101332.73
2023-03-01T20:24:24.917Z,101339.05
2023-03-01T20:29:28.342Z,101338.95
2023-03-01T20:35:02.209Z,101341.00
2023-03-01T20:40:06.381Z,101343.33
2023-03-01T20:45:20.049Z,101336.71
2023-03-01T20:50:23.607Z,101339.95
2023-03-01T20:55:26.892Z,101340.27
2023-03-01T21:00:43.066Z,101337.63
2023-03-01T21:05:58.748Z,101333.67
2023-03-01T21:11:07.536Z,101333.33
2023-03-01T21:16:32.677Z,101330.78
2023-03-01T21:21:38.858Z,101335.64
2023-03-01T21:26:53.625Z,101335.19
2023-03-01T21:32:27.168Z,101332.10
2023-03-01T21:38:31.681Z,101333.91
2023-03-01T21:43:47.084Z,101329.17
2023-03-01T21:49:24.144Z,101325.23
2023-03-01T21:54:55.518Z,101328.77
2023-03-01T22:00:39.850Z,101329.46
2023-03-01T22:06:06.882Z,101326.13
2023-03-01T22:11:32.173Z,101321.94
2023-03-01T22:16:51.388Z,101320.60
2023-03-01T22:22:36.667Z,101315.27
2023-03-01T22:27:47.167Z,101305.95
2023-03-01T22:33:00.598Z,101299.62
2023-03-01T22:38:10.133Z,101298.13
2023-03-01T22:43:13.443Z,101300.48
2023-03-01T22:48:19.396Z,101301.34
2023-03-01T22:53:22.765Z,101303.95
2023-03-01T22:58:26.177Z,101308.34
2023-03-01T23:03:29.396Z,101306.63
2023-03-01T23:08:35.905Z,101311.48
2023-03-01T23:13:50.149Z,101311.96
2023-03-01T23:19:16.110Z,101316.30
2023-03-01T23:24:44.472Z,101319.42
2023-03-01T23:29:48.031Z,101313.90
2023-03-01T23:34:53.839Z,101311.34
2023-03-01T23:39:57.838Z,101313.31
2023-03-01T23:45:01.296Z,101315.16
2023-03-01T23:50:24.974Z,101309.99
2023-03-01T23:56:49.384Z,101306.02
